createdAt,value
2018-06-02T00:01:20.235Z,15.90
2018-06-02T00:03:47.800Z,15.47
2018-06-02T00:06:15.380Z,16.67
2018-06-02T00:08:43.698Z,17.20
2018-06-02T00:11:11.264Z,17.27
2018-06-02T00:13:38.805Z,17.33
2018-06-02T00:16:06.368Z,18.00
2018-06-02T00:18:33.913Z,17.00
2018-06-02T00:21:01.477Z,17.17
2018-06-02T00:23:29.018Z,17.00
2018-06-02T00:25:57.363Z,16.93
2018-06-02T00:28:25.670Z,17.60
2018-06-02T00:30:54.009Z,16.33
2018-06-02T00:33:21.550Z,16.63
2018-06-02T00:35:49.120Z,15.67
2018-06-02T00:38:16.693Z,16.07
2018-06-02T00:40:45.021Z,16.77
2018-06-02T00:43:12.684Z,15.37
2018-06-02T00:45:40.266Z,15.50
2018-06-02T00:48:07.815Z,16.47
2018-06-02T00:50:35.427Z,15.93
2018-06-02T00:53:02.990Z,19.00
2018-06-02T00:55:30.600Z,17.17
2018-06-02T00:57:58.146Z,17.30
2018-06-02T01:00:26.485Z,15.50
2018-06-02T01:02:57.777Z,14.73
2018-06-02T01:05:26.001Z,15.50
2018-06-02T01:07:53.540Z,15.60
2018-06-02T01:10:21.101Z,14.53
2018-06-02T01:12:48.660Z,15.10
2018-06-02T01:15:16.237Z,16.87
2018-06-02T01:17:43.789Z,18.23
2018-06-02T01:20:11.352Z,16.33
2018-06-02T01:22:38.964Z,18.23
2018-06-02T01:25:07.359Z,17.63
2018-06-02T01:27:34.916Z,17.90
2018-06-02T01:30:02.498Z,18.57
2018-06-02T01:32:30.050Z,18.63
2018-06-02T01:34:57.618Z,18.73
2018-06-02T01:37:25.162Z,19.80
2018-06-02T01:39:52.744Z,17.90
2018-06-02T01:42:20.405Z,19.33
2018-06-02T01:44:47.979Z,18.87
2018-06-02T01:47:15.569Z,19.53
2018-06-02T01:49:43.113Z,19.27
2018-06-02T01:52:10.703Z,20.20
2018-06-02T01:54:39.019Z,19.80
2018-06-02T01:57:06.624Z,17.87
2018-06-02T01:59:34.221Z,19.50
2018-06-02T02:02:01.816Z,18.10
2018-06-02T02:04:29.380Z,19.70
2018-06-02T02:06:57.109Z,19.00
2018-06-02T02:09:24.734Z,18.53
2018-06-02T02:11:52.337Z,18.87
2018-06-02T02:14:19.902Z,16.83
2018-06-02T02:16:47.462Z,19.00
2018-06-02T02:19:15.028Z,19.17
2018-06-02T02:21:42.720Z,21.13
2018-06-02T02:24:10.269Z,20.77
2018-06-02T02:26:37.842Z,21.37
2018-06-02T02:29:05.398Z,21.60
2018-06-02T02:31:32.993Z,21.00
2018-06-02T02:34:01.297Z,21.97
2018-06-02T02:36:28.865Z,20.43
2018-06-02T02:41:30.500Z,20.23
2018-06-02T02:43:58.158Z,21.63
2018-06-02T02:46:26.617Z,21.97
2018-06-02T02:48:54.178Z,21.13
2018-06-02T02:51:21.761Z,21.47
2018-06-02T02:53:50.066Z,19.67
2018-06-02T02:56:17.861Z,19.23
2018-06-02T02:58:45.413Z,21.37
2018-06-02T03:01:13.003Z,18.03
2018-06-02T03:03:40.566Z,20.83
2018-06-02T03:06:08.143Z,21.10
2018-06-02T03:08:36.481Z,20.03
2018-06-02T03:11:04.068Z,19.57
2018-06-02T03:13:31.690Z,20.50
2018-06-02T03:15:59.283Z,22.20
2018-06-02T03:18:27.629Z,19.93
2018-06-02T03:20:55.211Z,20.20
2018-06-02T03:23:22.756Z,22.07
2018-06-02T03:25:50.334Z,21.20
2018-06-02T03:28:17.884Z,20.63
2018-06-02T03:30:45.588Z,22.40
2018-06-02T03:33:13.973Z,21.40
2018-06-02T03:35:42.314Z,21.30
2018-06-02T03:38:09.866Z,20.47
2018-06-02T03:40:37.444Z,21.60
2018-06-02T03:43:05.123Z,23.80
2018-06-02T03:45:33.446Z,24.40
2018-06-02T03:48:00.995Z,27.30
2018-06-02T03:50:28.555Z,27.27
2018-06-02T03:52:56.116Z,28.13
2018-06-02T03:55:23.694Z,27.60
2018-06-02T03:57:51.240Z,28.07
2018-06-02T04:00:18.813Z,27.77
2018-06-02T04:02:46.361Z,29.37
2018-06-02T04:05:13.930Z,30.13
2018-06-02T04:07:41.505Z,27.07
2018-06-02T04:10:09.061Z,26.53
2018-06-02T04:12:36.666Z,30.30
2018-06-02T04:15:05.066Z,25.70
2018-06-02T04:17:32.638Z,24.90
2018-06-02T04:20:00.177Z,20.90
2018-06-02T04:22:28.512Z,28.57
2018-06-02T04:24:56.053Z,27.33
2018-06-02T04:27:23.688Z,26.97
2018-06-02T04:29:51.236Z,25.30
2018-06-02T04:32:19.581Z,26.77
2018-06-02T04:34:47.129Z,28.43
2018-06-02T04:37:14.722Z,26.53
2018-06-02T04:39:43.057Z,25.33
2018-06-02T04:42:10.698Z,28.43
2018-06-02T04:44:38.247Z,28.27
2018-06-02T04:47:05.824Z,24.80
2018-06-02T04:49:33.375Z,25.07
2018-06-02T04:52:00.960Z,25.90
2018-06-02T04:54:28.509Z,25.13
2018-06-02T04:56:56.146Z,22.80
2018-06-02T04:59:23.711Z,24.67
2018-06-02T05:01:51.280Z,22.63
2018-06-02T05:04:18.867Z,24.83
2018-06-02T05:06:46.420Z,25.03
2018-06-02T05:09:13.969Z,23.87
2018-06-02T05:11:41.545Z,23.27
2018-06-02T05:14:09.098Z,22.70
2018-06-02T05:16:36.667Z,20.23
2018-06-02T05:19:04.990Z,19.73
2018-06-02T05:21:33.330Z,22.73
2018-06-02T05:24:00.885Z,20.50
2018-06-02T05:26:29.229Z,18.47
2018-06-02T05:28:56.784Z,23.33
2018-06-02T05:31:24.378Z,16.10
2018-06-02T05:33:52.561Z,18.57
2018-06-02T05:36:20.128Z,20.07
2018-06-02T05:38:47.704Z,19.20
2018-06-02T05:41:15.274Z,17.00
2018-06-02T05:43:43.595Z,18.40
2018-06-02T05:46:11.181Z,20.37
2018-06-02T05:48:38.733Z,23.53
2018-06-02T05:51:06.303Z,21.70
2018-06-02T05:53:33.873Z,21.40
2018-06-02T05:56:01.452Z,23.73
2018-06-02T05:58:28.999Z,21.17
2018-06-02T06:00:56.576Z,21.70
2018-06-02T06:03:24.886Z,21.67
2018-06-02T06:05:52.449Z,19.40
2018-06-02T06:08:20.005Z,27.70
2018-06-02T06:10:47.556Z,24.77
2018-06-02T06:13:15.121Z,24.40
2018-06-02T06:15:42.673Z,21.60
2018-06-02T06:18:10.242Z,30.63
2018-06-02T06:20:37.785Z,24.27
2018-06-02T06:23:06.126Z,25.20
2018-06-02T06:25:33.677Z,27.80
2018-06-02T06:28:01.257Z,28.03
2018-06-02T06:30:28.838Z,28.97
2018-06-02T06:54:09.536Z,35.60
2018-06-02T06:56:37.126Z,35.60
2018-06-02T06:59:04.674Z,30.63
2018-06-02T07:01:33.015Z,29.70
2018-06-02T07:04:00.559Z,32.10
2018-06-02T07:06:28.137Z,28.30
2018-06-02T07:08:55.734Z,29.40
2018-06-02T07:11:23.307Z,29.50
2018-06-02T07:13:50.850Z,27.37
2018-06-02T07:16:19.188Z,28.90
2018-06-02T07:18:46.768Z,31.00
2018-06-02T07:21:14.370Z,38.53
2018-06-02T07:23:41.936Z,31.30
2018-06-02T07:26:09.555Z,26.80
2018-06-02T07:28:37.112Z,72.60
2018-06-02T07:31:04.679Z,25.43
2018-06-02T07:33:32.262Z,27.10
2018-06-02T07:36:00.592Z,28.83
2018-06-02T07:38:28.156Z,29.77
2018-06-02T07:40:55.702Z,32.43
2018-06-02T07:43:23.286Z,31.70
2018-06-02T07:45:50.835Z,29.83
2018-06-02T07:48:18.409Z,27.93
2018-06-02T07:50:45.958Z,26.40
2018-06-02T07:53:13.538Z,25.83
2018-06-02T07:55:41.875Z,25.53
2018-06-02T07:58:09.478Z,24.97
2018-06-02T08:00:37.045Z,26.33
2018-06-02T08:03:05.965Z,23.27
2018-06-02T08:05:33.555Z,22.13
2018-06-02T08:08:01.129Z,22.00
2018-06-02T08:10:28.722Z,20.70
2018-06-02T08:12:57.106Z,22.70
2018-06-02T08:15:25.425Z,22.17
2018-06-02T08:17:52.992Z,21.10
2018-06-02T08:20:20.577Z,20.73
2018-06-02T08:22:48.178Z,19.17
2018-06-02T08:25:15.737Z,21.90
2018-06-02T08:27:44.116Z,22.40
2018-06-02T08:30:11.818Z,16.27
2018-06-02T08:32:39.401Z,19.30
2018-06-02T08:35:06.949Z,16.63
2018-06-02T08:37:34.515Z,16.87
2018-06-02T08:40:04.954Z,15.70
2018-06-02T08:42:32.557Z,15.13
2018-06-02T08:45:00.154Z,13.83
2018-06-02T08:47:27.738Z,19.60
2018-06-02T08:49:55.297Z,15.80
2018-06-02T08:52:22.878Z,15.67
2018-06-02T08:54:51.186Z,18.40
2018-06-02T08:57:18.760Z,14.73
2018-06-02T08:59:46.322Z,14.27
2018-06-02T09:02:13.922Z,17.57
2018-06-02T09:04:42.242Z,13.53
2018-06-02T09:07:09.833Z,13.30
2018-06-02T09:09:37.391Z,13.97
2018-06-02T09:12:04.982Z,11.77
2018-06-02T09:14:32.550Z,13.00
2018-06-02T09:17:00.899Z,13.97
2018-06-02T09:19:28.465Z,14.57
2018-06-02T09:21:56.050Z,11.10
2018-06-02T09:24:24.364Z,11.20
2018-06-02T09:26:51.957Z,12.63
2018-06-02T09:29:19.507Z,11.00
2018-06-02T09:31:47.120Z,9.60
2018-06-02T09:34:15.455Z,9.67
2018-06-02T09:36:43.030Z,8.93
2018-06-02T09:39:10.599Z,12.50
2018-06-02T09:41:38.217Z,8.93
2018-06-02T09:44:05.829Z,8.37
2018-06-02T09:46:34.152Z,9.30
2018-06-02T09:49:01.746Z,8.53
2018-06-02T09:51:29.294Z,33.10
2018-06-02T09:53:56.934Z,30.10
2018-06-02T09:56:24.507Z,8.37
2018-06-02T09:58:52.094Z,10.73
2018-06-02T10:01:19.662Z,8.27
2018-06-02T10:03:47.255Z,7.23
2018-06-02T10:06:14.819Z,8.83
2018-06-02T10:08:42.414Z,8.90
2018-06-02T10:11:09.983Z,10.70
2018-06-02T10:13:37.550Z,7.83
2018-06-02T10:16:05.155Z,9.43
2018-06-02T10:18:32.721Z,8.30
2018-06-02T10:21:00.281Z,9.93
2018-06-02T10:23:27.860Z,9.47
2018-06-02T10:25:55.416Z,8.20
2018-06-02T10:28:23.012Z,9.83
2018-06-02T10:30:52.050Z,8.70
2018-06-02T10:33:19.618Z,10.30
2018-06-02T10:35:47.237Z,11.80
2018-06-02T10:38:14.773Z,9.53
2018-06-02T10:40:42.333Z,10.03
2018-06-02T10:43:09.906Z,8.13
2018-06-02T10:45:37.468Z,8.53
2018-06-02T10:48:05.048Z,8.10
2018-06-02T10:50:33.399Z,9.90
2018-06-02T10:53:00.969Z,8.00
2018-06-02T10:55:28.528Z,9.47
2018-06-02T10:57:56.097Z,8.93
2018-06-02T11:00:23.697Z,8.30
2018-06-02T11:02:51.265Z,9.57
2018-06-02T11:05:18.808Z,9.07
2018-06-02T11:07:46.377Z,9.70
2018-06-02T11:10:13.953Z,10.23
2018-06-02T11:12:41.540Z,9.87
2018-06-02T11:15:09.124Z,9.70
2018-06-02T11:17:36.700Z,10.30
2018-06-02T11:20:05.039Z,9.77
2018-06-02T11:22:32.621Z,9.07
2018-06-02T11:25:00.176Z,9.77
2018-06-02T11:27:27.766Z,9.30
2018-06-02T11:29:56.074Z,10.30
2018-06-02T11:32:23.667Z,10.17
2018-06-02T11:34:51.224Z,10.47
2018-06-02T11:37:18.841Z,9.30
2018-06-02T11:39:46.396Z,8.97
2018-06-02T11:42:13.961Z,8.33
2018-06-02T11:44:41.533Z,9.00
2018-06-02T11:47:09.115Z,7.73
2018-06-02T11:49:36.658Z,6.63
2018-06-02T11:52:04.200Z,8.30
2018-06-02T11:54:31.757Z,8.47
2018-06-02T11:56:59.293Z,7.87
2018-06-02T11:59:27.643Z,6.40
2018-06-02T12:01:55.218Z,7.60
2018-06-02T12:04:22.796Z,7.27
2018-06-02T12:06:51.121Z,7.33
2018-06-02T12:09:18.688Z,7.33
2018-06-02T12:11:46.241Z,6.40
2018-06-02T12:14:13.817Z,6.77
2018-06-02T12:16:41.384Z,7.30
2018-06-02T12:19:08.962Z,7.37
2018-06-02T12:21:36.516Z,7.83
2018-06-02T12:24:04.085Z,7.00
2018-06-02T12:26:32.417Z,6.17
2018-06-02T12:29:00.001Z,6.43
2018-06-02T12:31:27.557Z,6.90
2018-06-02T12:33:55.137Z,7.10
2018-06-02T12:36:22.693Z,6.47
2018-06-02T12:38:50.265Z,6.03
2018-06-02T12:41:18.569Z,6.07
2018-06-02T12:43:46.132Z,5.90
2018-06-02T12:46:13.678Z,5.80
2018-06-02T12:48:42.017Z,7.40
2018-06-02T12:51:09.562Z,4.90
2018-06-02T12:53:37.175Z,5.10
2018-06-02T12:56:05.493Z,5.60
2018-06-02T12:58:33.080Z,5.40
2018-06-02T13:01:00.642Z,5.40
2018-06-02T13:03:28.218Z,6.00
2018-06-02T13:05:55.774Z,5.37
2018-06-02T13:08:23.358Z,5.37
2018-06-02T13:10:51.683Z,6.00
2018-06-02T13:13:19.278Z,4.70
2018-06-02T13:15:47.656Z,4.90
2018-06-02T13:18:15.250Z,4.83
2018-06-02T13:20:42.832Z,4.93
2018-06-02T13:23:10.422Z,5.10
2018-06-02T13:25:37.990Z,5.80
2018-06-02T13:28:05.570Z,4.50
2018-06-02T13:30:33.901Z,5.57
2018-06-02T13:33:01.470Z,4.97
2018-06-02T13:35:29.048Z,4.80
2018-06-02T13:37:56.619Z,5.13
2018-06-02T13:40:25.672Z,5.40
2018-06-02T13:42:53.284Z,5.13
2018-06-02T13:45:21.598Z,3.63
2018-06-02T13:47:49.172Z,4.47
2018-06-02T13:50:16.748Z,3.20
2018-06-02T13:52:44.309Z,4.23
2018-06-02T13:55:11.889Z,5.37
2018-06-02T13:57:39.482Z,5.90
2018-06-02T14:00:07.031Z,3.90
2018-06-02T14:02:35.337Z,3.83
2018-06-02T14:05:02.902Z,4.90
2018-06-02T14:07:30.457Z,4.90
2018-06-02T14:09:58.031Z,4.30
2018-06-02T14:12:25.719Z,5.00
2018-06-02T14:14:53.315Z,4.30
2018-06-02T14:17:21.626Z,4.30
2018-06-02T14:19:49.202Z,5.73
2018-06-02T14:22:16.753Z,4.97
2018-06-02T14:24:44.318Z,3.80
2018-06-02T14:27:11.868Z,4.90
2018-06-02T14:29:39.436Z,4.00
2018-06-02T14:32:06.978Z,4.13
2018-06-02T14:34:34.533Z,3.80
2018-06-02T14:37:02.076Z,3.53
2018-06-02T14:39:29.666Z,3.00
2018-06-02T14:41:57.208Z,3.70
2018-06-02T14:44:24.775Z,3.23
2018-06-02T14:46:52.345Z,3.50
2018-06-02T14:49:19.953Z,3.67
2018-06-02T14:51:47.453Z,3.77
2018-06-02T14:54:15.786Z,4.20
2018-06-02T14:56:43.325Z,3.40
2018-06-02T14:59:10.892Z,3.70
2018-06-02T15:01:38.442Z,4.13
2018-06-02T15:04:06.014Z,3.77
2018-06-02T15:06:33.553Z,3.37
2018-06-02T15:09:01.130Z,3.50
2018-06-02T15:11:28.681Z,4.10
2018-06-02T15:13:56.237Z,3.97
2018-06-02T15:16:23.784Z,4.40
2018-06-02T15:18:51.352Z,3.77
2018-06-02T15:21:18.902Z,4.20
2018-06-02T15:23:46.467Z,4.47
2018-06-02T15:26:14.015Z,4.10
2018-06-02T15:28:41.594Z,4.03
2018-06-02T15:31:09.131Z,4.37
2018-06-02T15:33:36.701Z,5.10
2018-06-02T15:36:04.237Z,4.93
2018-06-02T15:38:31.809Z,4.00
2018-06-02T15:40:59.357Z,4.87
2018-06-02T15:43:26.930Z,4.50
2018-06-02T15:45:54.497Z,4.70
2018-06-02T15:48:22.121Z,3.83
2018-06-02T15:50:49.623Z,3.80
2018-06-02T15:53:17.195Z,3.40
2018-06-02T15:55:44.733Z,4.80
2018-06-02T15:58:12.311Z,6.50
2018-06-02T16:00:39.873Z,5.80
2018-06-02T16:03:07.452Z,3.83
2018-06-02T16:05:34.989Z,4.00
2018-06-02T16:08:02.537Z,4.17
2018-06-02T16:10:30.107Z,4.00
2018-06-02T16:12:57.658Z,3.87
2018-06-02T16:15:25.223Z,4.00
2018-06-02T16:17:52.773Z,4.20
2018-06-02T16:20:20.336Z,4.50
2018-06-02T16:22:47.874Z,3.33
2018-06-02T16:25:15.457Z,3.70
2018-06-02T16:27:43.001Z,3.83
2018-06-02T16:30:10.574Z,3.73
2018-06-02T16:32:38.121Z,3.37
2018-06-02T16:35:05.693Z,3.40
2018-06-02T16:37:33.228Z,3.03
2018-06-02T16:40:00.801Z,4.03
2018-06-02T16:42:28.342Z,3.70
2018-06-02T16:44:56.665Z,3.40
2018-06-02T16:47:24.213Z,3.70
2018-06-02T16:49:51.775Z,3.40
2018-06-02T16:52:19.344Z,3.40
2018-06-02T16:54:46.922Z,3.27
2018-06-02T16:57:14.475Z,3.30
2018-06-02T16:59:42.044Z,3.90
2018-06-02T17:02:09.603Z,3.80
2018-06-02T17:04:37.168Z,3.93
2018-06-02T17:07:04.744Z,3.40
2018-06-02T17:09:32.314Z,3.37
2018-06-02T17:12:00.632Z,3.70
2018-06-02T17:14:28.209Z,3.70
2018-06-02T17:16:55.762Z,3.50
2018-06-02T17:19:23.344Z,3.03
2018-06-02T17:21:50.881Z,2.90
2018-06-02T17:24:18.452Z,3.37
2018-06-02T17:26:46.009Z,3.57
2018-06-02T17:29:13.576Z,3.20
2018-06-02T17:31:41.125Z,3.13
2018-06-02T17:34:08.680Z,3.80
2018-06-02T17:36:36.233Z,3.60
2018-06-02T17:39:03.805Z,3.43
2018-06-02T17:41:31.358Z,3.83
2018-06-02T17:43:58.945Z,3.77
2018-06-02T17:46:26.499Z,4.27
2018-06-02T17:48:54.066Z,4.17
2018-06-02T17:51:21.615Z,4.40
2018-06-02T17:53:49.177Z,3.93
2018-06-02T17:56:16.721Z,4.73
2018-06-02T17:58:44.294Z,4.00
2018-06-02T18:01:11.878Z,4.00
2018-06-02T18:03:39.453Z,3.30
2018-06-02T18:06:07.806Z,3.80
2018-06-02T18:08:35.391Z,3.90
2018-06-02T18:11:03.737Z,4.47
2018-06-02T18:13:31.290Z,3.83
2018-06-02T18:15:58.873Z,3.60
2018-06-02T18:18:26.419Z,3.33
2018-06-02T18:20:53.986Z,4.60
2018-06-02T18:23:21.561Z,4.57
2018-06-02T18:25:49.125Z,3.50
2018-06-02T18:28:17.432Z,3.67
2018-06-02T18:30:45.018Z,3.70
2018-06-02T18:33:12.706Z,4.10
2018-06-02T18:35:40.309Z,3.60
2018-06-02T18:38:07.863Z,3.87
2018-06-02T18:40:36.209Z,3.73
2018-06-02T18:43:03.770Z,3.87
2018-06-02T18:45:31.355Z,3.70
2018-06-02T18:47:59.666Z,6.90
2018-06-02T18:50:27.241Z,4.17
2018-06-02T18:52:54.778Z,4.20
2018-06-02T18:55:22.352Z,3.80
2018-06-02T18:57:49.907Z,4.73
2018-06-02T19:00:17.489Z,4.60
2018-06-02T19:02:45.812Z,6.60
2018-06-02T19:05:14.146Z,4.63
2018-06-02T19:07:41.710Z,5.43
2018-06-02T19:10:09.280Z,5.20
2018-06-02T19:12:47.440Z,4.77
2018-06-02T19:15:15.054Z,4.80
2018-06-02T19:17:42.578Z,4.50
2018-06-02T19:20:10.146Z,5.70
2018-06-02T19:22:38.698Z,6.33
2018-06-02T19:25:06.250Z,6.83
2018-06-02T19:27:34.571Z,5.40
2018-06-02T19:30:02.183Z,5.07
2018-06-02T19:32:30.509Z,4.40
2018-06-02T19:34:58.071Z,4.60
2018-06-02T19:37:25.627Z,4.37
2018-06-02T19:39:53.206Z,5.50
2018-06-02T19:42:20.765Z,5.40
2018-06-02T19:44:48.344Z,5.27
2018-06-02T19:47:15.898Z,4.73
2018-06-02T19:49:43.487Z,5.30
2018-06-02T19:52:11.797Z,4.70
2018-06-02T19:54:39.378Z,4.83
2018-06-02T19:57:06.913Z,4.93
2018-06-02T19:59:34.493Z,4.30
2018-06-02T20:02:02.051Z,4.53
2018-06-02T20:04:29.643Z,4.83
2018-06-02T20:06:57.953Z,5.13
2018-06-02T20:09:25.549Z,5.73
2018-06-02T20:11:53.110Z,5.40
2018-06-02T20:14:20.701Z,5.27
2018-06-02T20:16:48.274Z,4.97
2018-06-02T20:19:16.610Z,4.13
2018-06-02T20:21:44.157Z,4.87
2018-06-02T20:24:11.777Z,5.23
2018-06-02T20:26:40.096Z,4.93
2018-06-02T20:29:07.665Z,3.97
2018-06-02T20:31:35.225Z,4.67
2018-06-02T20:36:36.796Z,4.97
2018-06-02T20:39:04.371Z,5.20
2018-06-02T20:41:31.945Z,4.50
2018-06-02T20:43:59.509Z,4.07
2018-06-02T20:46:27.090Z,5.17
2018-06-02T20:48:55.454Z,4.50
2018-06-02T20:51:23.796Z,5.00
2018-06-02T20:53:51.338Z,5.00
2018-06-02T20:56:18.899Z,4.40
2018-06-02T20:58:46.442Z,4.60
2018-06-02T21:01:14.036Z,4.70
2018-06-02T21:03:41.578Z,5.30
2018-06-02T21:06:09.150Z,4.67
2018-06-02T21:08:36.714Z,4.77
2018-06-02T21:11:04.294Z,4.97
2018-06-02T21:13:31.841Z,5.63
2018-06-02T21:16:00.180Z,5.10
2018-06-02T21:18:27.735Z,5.37
2018-06-02T21:20:55.310Z,5.47
2018-06-02T21:23:22.870Z,6.63
2018-06-02T21:25:50.447Z,6.23
2018-06-02T21:28:18.001Z,5.73
2018-06-02T21:30:45.569Z,5.30
2018-06-02T21:33:13.112Z,5.70
2018-06-02T21:35:40.674Z,5.57
2018-06-02T21:38:08.227Z,4.83
2018-06-02T21:40:35.807Z,4.90
2018-06-02T21:43:03.365Z,5.20
2018-06-02T21:45:30.951Z,5.47
2018-06-02T21:47:58.525Z,4.63
2018-06-02T21:50:26.090Z,4.57
2018-06-02T21:52:53.649Z,5.13
2018-06-02T21:55:21.248Z,5.70
2018-06-02T21:57:48.809Z,4.90
2018-06-02T22:00:16.386Z,5.37
2018-06-02T22:02:43.933Z,5.53
2018-06-02T22:05:11.505Z,5.23
2018-06-02T22:07:39.055Z,5.17
2018-06-02T22:10:06.622Z,5.40
2018-06-02T22:12:34.182Z,4.77
2018-06-02T22:15:01.751Z,6.00
2018-06-02T22:17:29.286Z,5.50
2018-06-02T22:19:56.851Z,5.00
2018-06-02T22:22:24.404Z,6.10
2018-06-02T22:24:51.986Z,6.33
2018-06-02T22:27:19.542Z,5.97
2018-06-02T22:29:47.091Z,5.83
2018-06-02T22:32:14.672Z,5.63
2018-06-02T22:34:42.219Z,4.57
2018-06-02T22:37:09.798Z,5.70
2018-06-02T22:39:37.336Z,6.17
2018-06-02T22:42:04.901Z,5.50
2018-06-02T22:44:32.458Z,5.27
2018-06-02T22:47:00.036Z,6.20
2018-06-02T22:49:27.589Z,6.23
2018-06-02T22:51:58.202Z,6.20
2018-06-02T22:54:26.687Z,6.00
2018-06-02T22:56:54.256Z,5.87
2018-06-02T22:59:21.818Z,5.93
2018-06-02T23:01:49.389Z,5.97
2018-06-02T23:04:16.926Z,5.70
2018-06-02T23:06:44.553Z,8.17
2018-06-02T23:09:12.885Z,5.73
2018-06-02T23:11:40.472Z,6.50
2018-06-02T23:14:08.017Z,6.90
2018-06-02T23:16:35.577Z,6.00
2018-06-02T23:19:03.117Z,6.30
2018-06-02T23:21:30.688Z,6.20
2018-06-02T23:23:58.245Z,6.40
2018-06-02T23:26:25.838Z,6.10
2018-06-02T23:28:53.426Z,6.47
2018-06-02T23:31:20.974Z,6.70
2018-06-02T23:33:49.317Z,7.10
2018-06-02T23:36:16.869Z,5.60
2018-06-02T23:38:45.208Z,7.67
2018-06-02T23:41:12.768Z,6.80
2018-06-02T23:43:40.346Z,8.10
2018-06-02T23:46:07.903Z,6.50
2018-06-02T23:48:35.501Z,7.10
2018-06-02T23:51:03.053Z,7.20
2018-06-02T23:53:30.648Z,7.67
2018-06-02T23:55:58.969Z,7.67
2018-06-02T23:58:26.585Z,6.10
